sensor_id;sensor_type;location;lat;lon;timestamp;temperature;humidity
8824;DHT22;4448;50.904;4.694;2023-09-08T00:01:15;24.00;99.90
8824;DHT22;4448;50.904;4.694;2023-09-08T00:03:41;23.90;99.90
8824;DHT22;4448;50.904;4.694;2023-09-08T00:06:07;23.90;99.90
8824;DHT22;4448;50.904;4.694;2023-09-08T00:08:32;23.90;99.90
8824;DHT22;4448;50.904;4.694;2023-09-08T00:10:58;23.90;99.90
8824;DHT22;4448;50.904;4.694;2023-09-08T00:13:24;23.90;99.90
8824;DHT22;4448;50.904;4.694;2023-09-08T00:15:49;23.90;99.90
8824;DHT22;4448;50.904;4.694;2023-09-08T00:18:15;23.90;99.90
8824;DHT22;4448;50.904;4.694;2023-09-08T00:20:41;23.80;99.90
8824;DHT22;4448;50.904;4.694;2023-09-08T00:23:07;23.80;99.90
8824;DHT22;4448;50.904;4.694;2023-09-08T00:25:33;23.80;99.90
8824;DHT22;4448;50.904;4.694;2023-09-08T00:28:00;23.80;99.90
8824;DHT22;4448;50.904;4.694;2023-09-08T00:30:25;23.80;99.90
8824;DHT22;4448;50.904;4.694;2023-09-08T00:32:51;23.80;99.90
8824;DHT22;4448;50.904;4.694;2023-09-08T00:35:17;23.80;99.90
8824;DHT22;4448;50.904;4.694;2023-09-08T00:37:43;23.80;99.90
8824;DHT22;4448;50.904;4.694;2023-09-08T00:40:10;23.70;99.90
8824;DHT22;4448;50.904;4.694;2023-09-08T00:42:35;23.70;99.90
8824;DHT22;4448;50.904;4.694;2023-09-08T00:45:02;23.70;99.90
8824;DHT22;4448;50.904;4.694;2023-09-08T00:47:28;23.70;99.90
8824;DHT22;4448;50.904;4.694;2023-09-08T00:49:55;23.70;99.90
8824;DHT22;4448;50.904;4.694;2023-09-08T00:52:21;23.70;99.90
8824;DHT22;4448;50.904;4.694;2023-09-08T00:54:47;23.70;99.90
8824;DHT22;4448;50.904;4.694;2023-09-08T00:57:13;23.60;99.90
8824;DHT22;4448;50.904;4.694;2023-09-08T00:59:39;23.60;99.90
8824;DHT22;4448;50.904;4.694;2023-09-08T01:02:05;23.60;99.90
8824;DHT22;4448;50.904;4.694;2023-09-08T01:04:31;23.60;99.90
8824;DHT22;4448;50.904;4.694;2023-09-08T01:06:58;23.60;99.90
8824;DHT22;4448;50.904;4.694;2023-09-08T01:09:25;23.50;99.90
8824;DHT22;4448;50.904;4.694;2023-09-08T01:11:51;23.50;99.90
8824;DHT22;4448;50.904;4.694;2023-09-08T01:14:20;23.50;99.90
8824;DHT22;4448;50.904;4.694;2023-09-08T01:16:46;23.50;99.90
8824;DHT22;4448;50.904;4.694;2023-09-08T01:19:13;23.50;99.90
8824;DHT22;4448;50.904;4.694;2023-09-08T01:26:57;23.50;99.90
8824;DHT22;4448;50.904;4.694;2023-09-08T01:29:22;23.50;99.90
8824;DHT22;4448;50.904;4.694;2023-09-08T01:31:51;23.50;99.90
8824;DHT22;4448;50.904;4.694;2023-09-08T01:34:18;23.40;99.90
8824;DHT22;4448;50.904;4.694;2023-09-08T01:36:45;23.40;99.90
8824;DHT22;4448;50.904;4.694;2023-09-08T01:39:11;23.40;99.90
8824;DHT22;4448;50.904;4.694;2023-09-08T01:41:36;23.40;99.90
8824;DHT22;4448;50.904;4.694;2023-09-08T01:44:02;23.40;99.90
8824;DHT22;4448;50.904;4.694;2023-09-08T01:46:33;23.40;99.90
8824;DHT22;4448;50.904;4.694;2023-09-08T01:48:59;23.30;99.90
8824;DHT22;4448;50.904;4.694;2023-09-08T01:51:25;23.30;99.90
8824;DHT22;4448;50.904;4.694;2023-09-08T01:53:50;23.30;99.90
8824;DHT22;4448;50.904;4.694;2023-09-08T01:56:16;23.30;99.90
8824;DHT22;4448;50.904;4.694;2023-09-08T01:58:42;23.30;99.90
8824;DHT22;4448;50.904;4.694;2023-09-08T02:01:07;23.20;99.90
8824;DHT22;4448;50.904;4.694;2023-09-08T02:03:33;23.20;99.90
8824;DHT22;4448;50.904;4.694;2023-09-08T02:05:59;23.20;99.90
8824;DHT22;4448;50.904;4.694;2023-09-08T02:08:24;23.20;99.90
8824;DHT22;4448;50.904;4.694;2023-09-08T02:10:50;23.20;99.90
8824;DHT22;4448;50.904;4.694;2023-09-08T02:13:16;23.10;99.90
8824;DHT22;4448;50.904;4.694;2023-09-08T02:15:41;23.10;99.90
8824;DHT22;4448;50.904;4.694;2023-09-08T02:18:08;23.10;99.90
8824;DHT22;4448;50.904;4.694;2023-09-08T02:20:34;23.10;99.90
8824;DHT22;4448;50.904;4.694;2023-09-08T02:23:04;23.10;99.90
8824;DHT22;4448;50.904;4.694;2023-09-08T02:25:30;23.10;99.90
8824;DHT22;4448;50.904;4.694;2023-09-08T02:27:56;23.10;99.90
8824;DHT22;4448;50.904;4.694;2023-09-08T02:30:22;23.10;99.90
8824;DHT22;4448;50.904;4.694;2023-09-08T02:32:48;23.10;99.90
8824;DHT22;4448;50.904;4.694;2023-09-08T02:35:14;23.00;99.90
8824;DHT22;4448;50.904;4.694;2023-09-08T02:37:40;23.00;99.90
8824;DHT22;4448;50.904;4.694;2023-09-08T02:40:07;23.00;99.90
8824;DHT22;4448;50.904;4.694;2023-09-08T02:42:32;23.00;99.90
8824;DHT22;4448;50.904;4.694;2023-09-08T02:44:58;23.00;99.90
8824;DHT22;4448;50.904;4.694;2023-09-08T02:47:24;22.90;99.90
8824;DHT22;4448;50.904;4.694;2023-09-08T02:49:49;22.90;99.90
8824;DHT22;4448;50.904;4.694;2023-09-08T02:52:15;22.90;99.90
8824;DHT22;4448;50.904;4.694;2023-09-08T02:54:40;22.90;99.90
8824;DHT22;4448;50.904;4.694;2023-09-08T02:57:06;22.80;99.90
8824;DHT22;4448;50.904;4.694;2023-09-08T02:59:32;22.80;99.90
8824;DHT22;4448;50.904;4.694;2023-09-08T03:01:59;22.80;99.90
8824;DHT22;4448;50.904;4.694;2023-09-08T03:04:25;22.80;99.90
8824;DHT22;4448;50.904;4.694;2023-09-08T03:06:50;22.80;99.90
8824;DHT22;4448;50.904;4.694;2023-09-08T03:09:16;22.70;99.90
8824;DHT22;4448;50.904;4.694;2023-09-08T03:11:42;22.70;99.90
8824;DHT22;4448;50.904;4.694;2023-09-08T03:14:07;22.70;99.90
8824;DHT22;4448;50.904;4.694;2023-09-08T03:16:33;22.70;99.90
8824;DHT22;4448;50.904;4.694;2023-09-08T03:18:59;22.60;99.90
8824;DHT22;4448;50.904;4.694;2023-09-08T03:21:25;22.60;99.90
8824;DHT22;4448;50.904;4.694;2023-09-08T03:23:50;22.60;99.90
8824;DHT22;4448;50.904;4.694;2023-09-08T03:26:16;22.60;99.90
8824;DHT22;4448;50.904;4.694;2023-09-08T03:28:42;22.60;99.90
8824;DHT22;4448;50.904;4.694;2023-09-08T03:31:08;22.60;99.90
8824;DHT22;4448;50.904;4.694;2023-09-08T03:33:34;22.50;99.90
8824;DHT22;4448;50.904;4.694;2023-09-08T03:36:00;22.50;99.90
8824;DHT22;4448;50.904;4.694;2023-09-08T03:38:26;22.50;99.90
8824;DHT22;4448;50.904;4.694;2023-09-08T03:40:52;22.50;99.90
8824;DHT22;4448;50.904;4.694;2023-09-08T03:43:18;22.50;99.90
8824;DHT22;4448;50.904;4.694;2023-09-08T03:45:44;22.50;99.90
8824;DHT22;4448;50.904;4.694;2023-09-08T03:48:09;22.40;99.90
8824;DHT22;4448;50.904;4.694;2023-09-08T03:50:35;22.40;99.90
8824;DHT22;4448;50.904;4.694;2023-09-08T03:53:01;22.40;99.90
8824;DHT22;4448;50.904;4.694;2023-09-08T03:55:27;22.40;99.90
8824;DHT22;4448;50.904;4.694;2023-09-08T03:57:52;22.30;99.90
8824;DHT22;4448;50.904;4.694;2023-09-08T04:00:19;22.30;99.90
8824;DHT22;4448;50.904;4.694;2023-09-08T04:02:46;22.30;99.90
8824;DHT22;4448;50.904;4.694;2023-09-08T04:05:12;22.30;99.90
8824;DHT22;4448;50.904;4.694;2023-09-08T04:07:38;22.30;99.90
8824;DHT22;4448;50.904;4.694;2023-09-08T04:10:04;22.30;99.90
8824;DHT22;4448;50.904;4.694;2023-09-08T04:12:30;22.30;99.90
8824;DHT22;4448;50.904;4.694;2023-09-08T04:14:55;22.30;99.90
8824;DHT22;4448;50.904;4.694;2023-09-08T04:17:21;22.20;99.90
8824;DHT22;4448;50.904;4.694;2023-09-08T04:19:46;22.20;99.90
8824;DHT22;4448;50.904;4.694;2023-09-08T04:22:12;22.20;99.90
8824;DHT22;4448;50.904;4.694;2023-09-08T04:24:38;22.20;99.90
8824;DHT22;4448;50.904;4.694;2023-09-08T04:27:04;22.20;99.90
8824;DHT22;4448;50.904;4.694;2023-09-08T04:29:29;22.10;99.90
8824;DHT22;4448;50.904;4.694;2023-09-08T04:31:55;22.10;99.90
8824;DHT22;4448;50.904;4.694;2023-09-08T04:34:21;22.10;99.90
8824;DHT22;4448;50.904;4.694;2023-09-08T04:36:46;22.10;99.90
8824;DHT22;4448;50.904;4.694;2023-09-08T04:39:12;22.10;99.90
8824;DHT22;4448;50.904;4.694;2023-09-08T04:41:40;22.10;99.90
8824;DHT22;4448;50.904;4.694;2023-09-08T04:44:06;22.10;99.90
8824;DHT22;4448;50.904;4.694;2023-09-08T04:46:31;22.00;99.90
8824;DHT22;4448;50.904;4.694;2023-09-08T04:48:57;22.00;99.90
8824;DHT22;4448;50.904;4.694;2023-09-08T04:51:24;22.00;99.90
8824;DHT22;4448;50.904;4.694;2023-09-08T04:53:50;22.00;99.90
8824;DHT22;4448;50.904;4.694;2023-09-08T04:56:15;22.00;99.90
8824;DHT22;4448;50.904;4.694;2023-09-08T04:58:41;22.00;99.90
8824;DHT22;4448;50.904;4.694;2023-09-08T05:01:06;22.00;99.90
8824;DHT22;4448;50.904;4.694;2023-09-08T05:03:32;21.90;99.90
8824;DHT22;4448;50.904;4.694;2023-09-08T05:05:58;21.90;99.90
8824;DHT22;4448;50.904;4.694;2023-09-08T05:08:23;21.90;99.90
8824;DHT22;4448;50.904;4.694;2023-09-08T05:10:49;21.90;99.90
8824;DHT22;4448;50.904;4.694;2023-09-08T05:13:16;21.90;99.90
8824;DHT22;4448;50.904;4.694;2023-09-08T05:15:42;21.90;99.90
8824;DHT22;4448;50.904;4.694;2023-09-08T05:18:09;21.90;99.90
8824;DHT22;4448;50.904;4.694;2023-09-08T05:20:35;21.90;99.90
8824;DHT22;4448;50.904;4.694;2023-09-08T05:23:00;21.90;99.90
8824;DHT22;4448;50.904;4.694;2023-09-08T05:25:26;21.90;99.90
8824;DHT22;4448;50.904;4.694;2023-09-08T05:27:51;21.80;99.90
8824;DHT22;4448;50.904;4.694;2023-09-08T05:30:17;21.80;99.90
8824;DHT22;4448;50.904;4.694;2023-09-08T05:32:43;21.80;99.90
8824;DHT22;4448;50.904;4.694;2023-09-08T05:35:09;21.80;99.90
8824;DHT22;4448;50.904;4.694;2023-09-08T05:37:35;21.80;99.90
8824;DHT22;4448;50.904;4.694;2023-09-08T05:40:00;21.80;99.90
8824;DHT22;4448;50.904;4.694;2023-09-08T05:42:26;21.80;99.90
8824;DHT22;4448;50.904;4.694;2023-09-08T05:44:52;21.80;99.90
8824;DHT22;4448;50.904;4.694;2023-09-08T05:47:20;21.80;99.90
8824;DHT22;4448;50.904;4.694;2023-09-08T05:49:45;21.80;99.90
8824;DHT22;4448;50.904;4.694;2023-09-08T05:52:12;21.80;99.90
8824;DHT22;4448;50.904;4.694;2023-09-08T05:54:38;21.80;99.90
8824;DHT22;4448;50.904;4.694;2023-09-08T05:57:05;21.70;99.90
8824;DHT22;4448;50.904;4.694;2023-09-08T05:59:30;21.80;99.90
8824;DHT22;4448;50.904;4.694;2023-09-08T06:01:56;21.80;99.90
8824;DHT22;4448;50.904;4.694;2023-09-08T06:04:22;21.80;99.90
8824;DHT22;4448;50.904;4.694;2023-09-08T06:06:47;21.80;99.90
8824;DHT22;4448;50.904;4.694;2023-09-08T06:09:13;21.80;99.90
8824;DHT22;4448;50.904;4.694;2023-09-08T06:11:41;21.80;99.90
8824;DHT22;4448;50.904;4.694;2023-09-08T06:14:06;21.80;99.90
8824;DHT22;4448;50.904;4.694;2023-09-08T06:16:32;21.80;99.90
8824;DHT22;4448;50.904;4.694;2023-09-08T06:18:58;21.80;99.90
8824;DHT22;4448;50.904;4.694;2023-09-08T06:21:24;21.80;99.90
8824;DHT22;4448;50.904;4.694;2023-09-08T06:23:50;21.90;99.90
8824;DHT22;4448;50.904;4.694;2023-09-08T06:26:15;21.90;99.90
8824;DHT22;4448;50.904;4.694;2023-09-08T06:28:41;21.90;99.90
8824;DHT22;4448;50.904;4.694;2023-09-08T06:31:09;21.90;99.90
8824;DHT22;4448;50.904;4.694;2023-09-08T06:33:34;21.90;99.90
8824;DHT22;4448;50.904;4.694;2023-09-08T06:36:00;21.90;99.90
8824;DHT22;4448;50.904;4.694;2023-09-08T06:38:25;21.90;99.90
8824;DHT22;4448;50.904;4.694;2023-09-08T06:40:51;22.00;99.90
8824;DHT22;4448;50.904;4.694;2023-09-08T06:43:18;22.00;99.90
8824;DHT22;4448;50.904;4.694;2023-09-08T06:45:48;22.00;99.90
8824;DHT22;4448;50.904;4.694;2023-09-08T06:48:14;22.00;99.90
8824;DHT22;4448;50.904;4.694;2023-09-08T06:50:40;22.00;99.90
8824;DHT22;4448;50.904;4.694;2023-09-08T06:53:06;22.00;99.90
8824;DHT22;4448;50.904;4.694;2023-09-08T06:55:31;22.00;99.90
8824;DHT22;4448;50.904;4.694;2023-09-08T06:57:57;22.00;99.90
8824;DHT22;4448;50.904;4.694;2023-09-08T07:00:23;22.00;99.90
8824;DHT22;4448;50.904;4.694;2023-09-08T07:02:48;22.10;99.90
8824;DHT22;4448;50.904;4.694;2023-09-08T07:05:15;22.10;99.90
8824;DHT22;4448;50.904;4.694;2023-09-08T07:07:41;22.10;99.90
8824;DHT22;4448;50.904;4.694;2023-09-08T07:10:08;22.10;99.90
8824;DHT22;4448;50.904;4.694;2023-09-08T07:12:34;22.20;99.90
8824;DHT22;4448;50.904;4.694;2023-09-08T07:15:00;22.20;99.90
8824;DHT22;4448;50.904;4.694;2023-09-08T07:17:26;22.20;99.90
8824;DHT22;4448;50.904;4.694;2023-09-08T07:19:52;22.20;99.90
8824;DHT22;4448;50.904;4.694;2023-09-08T07:22:18;22.20;99.90
8824;DHT22;4448;50.904;4.694;2023-09-08T07:24:44;22.30;99.90
8824;DHT22;4448;50.904;4.694;2023-09-08T07:27:10;22.30;99.90
8824;DHT22;4448;50.904;4.694;2023-09-08T07:29:39;22.30;99.90
8824;DHT22;4448;50.904;4.694;2023-09-08T07:32:05;22.30;99.90
8824;DHT22;4448;50.904;4.694;2023-09-08T07:34:30;22.40;99.90
8824;DHT22;4448;50.904;4.694;2023-09-08T07:36:56;22.40;99.90
8824;DHT22;4448;50.904;4.694;2023-09-08T07:39:22;22.40;99.90
8824;DHT22;4448;50.904;4.694;2023-09-08T07:41:47;22.50;99.90
8824;DHT22;4448;50.904;4.694;2023-09-08T07:44:13;22.50;99.90
8824;DHT22;4448;50.904;4.694;2023-09-08T07:46:39;22.50;99.90
8824;DHT22;4448;50.904;4.694;2023-09-08T07:49:04;22.50;99.90
8824;DHT22;4448;50.904;4.694;2023-09-08T07:51:30;22.60;99.90
8824;DHT22;4448;50.904;4.694;2023-09-08T07:53:56;22.60;99.90
8824;DHT22;4448;50.904;4.694;2023-09-08T07:56:22;22.70;99.90
8824;DHT22;4448;50.904;4.694;2023-09-08T07:58:47;22.80;99.90
8824;DHT22;4448;50.904;4.694;2023-09-08T08:01:13;22.80;99.90
8824;DHT22;4448;50.904;4.694;2023-09-08T08:03:39;22.80;99.90
8824;DHT22;4448;50.904;4.694;2023-09-08T08:06:05;22.90;99.90
8824;DHT22;4448;50.904;4.694;2023-09-08T08:08:31;23.00;99.90
8824;DHT22;4448;50.904;4.694;2023-09-08T08:10:59;23.00;99.90
8824;DHT22;4448;50.904;4.694;2023-09-08T08:13:24;23.00;99.90
8824;DHT22;4448;50.904;4.694;2023-09-08T08:15:50;23.10;99.90
8824;DHT22;4448;50.904;4.694;2023-09-08T08:18:16;23.20;99.90
8824;DHT22;4448;50.904;4.694;2023-09-08T08:20:42;23.30;99.90
8824;DHT22;4448;50.904;4.694;2023-09-08T08:23:08;23.40;99.90
8824;DHT22;4448;50.904;4.694;2023-09-08T08:25:33;23.40;99.90
8824;DHT22;4448;50.904;4.694;2023-09-08T08:27:59;23.60;99.90
8824;DHT22;4448;50.904;4.694;2023-09-08T08:30:27;23.70;99.90
8824;DHT22;4448;50.904;4.694;2023-09-08T08:32:53;23.80;99.90
8824;DHT22;4448;50.904;4.694;2023-09-08T08:35:20;23.90;99.90
8824;DHT22;4448;50.904;4.694;2023-09-08T08:37:46;24.00;99.90
8824;DHT22;4448;50.904;4.694;2023-09-08T08:40:12;24.20;99.90
8824;DHT22;4448;50.904;4.694;2023-09-08T08:42:38;24.30;99.90
8824;DHT22;4448;50.904;4.694;2023-09-08T08:45:05;24.40;99.90
8824;DHT22;4448;50.904;4.694;2023-09-08T08:47:31;24.60;99.90
8824;DHT22;4448;50.904;4.694;2023-09-08T08:49:57;24.70;99.90
8824;DHT22;4448;50.904;4.694;2023-09-08T08:52:26;24.90;99.90
8824;DHT22;4448;50.904;4.694;2023-09-08T08:54:53;25.10;99.90
8824;DHT22;4448;50.904;4.694;2023-09-08T08:57:20;25.20;99.90
8824;DHT22;4448;50.904;4.694;2023-09-08T08:59:47;25.40;99.90
8824;DHT22;4448;50.904;4.694;2023-09-08T09:02:14;25.60;99.90
8824;DHT22;4448;50.904;4.694;2023-09-08T09:04:40;25.80;99.90
8824;DHT22;4448;50.904;4.694;2023-09-08T09:07:07;26.00;99.90
8824;DHT22;4448;50.904;4.694;2023-09-08T09:09:33;26.10;99.90
8824;DHT22;4448;50.904;4.694;2023-09-08T09:11:59;26.30;99.90
8824;DHT22;4448;50.904;4.694;2023-09-08T09:14:25;26.50;99.90
8824;DHT22;4448;50.904;4.694;2023-09-08T09:16:51;26.70;99.90
8824;DHT22;4448;50.904;4.694;2023-09-08T09:19:21;26.80;99.90
8824;DHT22;4448;50.904;4.694;2023-09-08T09:21:53;27.00;99.90
8824;DHT22;4448;50.904;4.694;2023-09-08T09:24:41;27.20;99.90
8824;DHT22;4448;50.904;4.694;2023-09-08T09:27:09;27.40;99.90
8824;DHT22;4448;50.904;4.694;2023-09-08T09:29:49;27.50;99.90
8824;DHT22;4448;50.904;4.694;2023-09-08T09:32:16;27.70;99.90
8824;DHT22;4448;50.904;4.694;2023-09-08T09:34:53;27.90;99.90
8824;DHT22;4448;50.904;4.694;2023-09-08T09:37:19;28.10;99.90
8824;DHT22;4448;50.904;4.694;2023-09-08T09:39:53;28.20;99.90
8824;DHT22;4448;50.904;4.694;2023-09-08T09:42:19;28.40;99.90
8824;DHT22;4448;50.904;4.694;2023-09-08T09:44:52;28.50;99.90
8824;DHT22;4448;50.904;4.694;2023-09-08T09:47:19;28.70;99.90
8824;DHT22;4448;50.904;4.694;2023-09-08T09:49:45;28.80;99.90
8824;DHT22;4448;50.904;4.694;2023-09-08T09:52:12;28.90;99.90
8824;DHT22;4448;50.904;4.694;2023-09-08T09:54:41;29.00;99.90
8824;DHT22;4448;50.904;4.694;2023-09-08T09:57:09;29.20;99.90
8824;DHT22;4448;50.904;4.694;2023-09-08T09:59:36;29.30;99.90
8824;DHT22;4448;50.904;4.694;2023-09-08T10:02:02;29.50;99.90
8824;DHT22;4448;50.904;4.694;2023-09-08T10:04:29;29.60;99.90
8824;DHT22;4448;50.904;4.694;2023-09-08T10:06:55;29.70;99.90
8824;DHT22;4448;50.904;4.694;2023-09-08T10:09:23;29.80;99.90
8824;DHT22;4448;50.904;4.694;2023-09-08T10:11:50;29.90;99.90
8824;DHT22;4448;50.904;4.694;2023-09-08T10:14:17;30.00;99.90
8824;DHT22;4448;50.904;4.694;2023-09-08T10:16:45;30.10;99.90
8824;DHT22;4448;50.904;4.694;2023-09-08T10:19:15;30.20;99.90
8824;DHT22;4448;50.904;4.694;2023-09-08T10:21:48;30.30;99.90
8824;DHT22;4448;50.904;4.694;2023-09-08T10:24:22;30.50;99.90
8824;DHT22;4448;50.904;4.694;2023-09-08T10:27:03;30.60;99.90
8824;DHT22;4448;50.904;4.694;2023-09-08T10:29:30;30.70;99.90
8824;DHT22;4448;50.904;4.694;2023-09-08T10:31:57;30.80;99.90
8824;DHT22;4448;50.904;4.694;2023-09-08T10:34:24;30.90;99.90
8824;DHT22;4448;50.904;4.694;2023-09-08T10:36:51;31.00;99.90
8824;DHT22;4448;50.904;4.694;2023-09-08T10:44:55;31.30;99.90
8824;DHT22;4448;50.904;4.694;2023-09-08T10:47:25;31.50;99.90
8824;DHT22;4448;50.904;4.694;2023-09-08T10:49:52;31.60;99.90
8824;DHT22;4448;50.904;4.694;2023-09-08T10:52:23;31.70;99.90
8824;DHT22;4448;50.904;4.694;2023-09-08T10:54:51;31.80;99.90
8824;DHT22;4448;50.904;4.694;2023-09-08T10:57:19;31.90;99.90
8824;DHT22;4448;50.904;4.694;2023-09-08T11:00:00;32.10;99.90
8824;DHT22;4448;50.904;4.694;2023-09-08T11:05:14;32.30;99.90
8824;DHT22;4448;50.904;4.694;2023-09-08T11:07:42;32.40;99.90
8824;DHT22;4448;50.904;4.694;2023-09-08T11:10:09;32.50;99.90
8824;DHT22;4448;50.904;4.694;2023-09-08T11:12:35;32.60;99.90
8824;DHT22;4448;50.904;4.694;2023-09-08T11:15:06;32.70;99.90
8824;DHT22;4448;50.904;4.694;2023-09-08T11:17:34;32.80;99.90
8824;DHT22;4448;50.904;4.694;2023-09-08T11:20:02;32.90;99.90
8824;DHT22;4448;50.904;4.694;2023-09-08T11:22:34;33.00;99.90
8824;DHT22;4448;50.904;4.694;2023-09-08T11:25:01;33.10;99.90
8824;DHT22;4448;50.904;4.694;2023-09-08T11:27:30;33.20;99.90
8824;DHT22;4448;50.904;4.694;2023-09-08T11:29:56;33.30;99.90
8824;DHT22;4448;50.904;4.694;2023-09-08T11:32:23;33.30;99.90
8824;DHT22;4448;50.904;4.694;2023-09-08T11:34:49;33.40;99.90
8824;DHT22;4448;50.904;4.694;2023-09-08T11:37:16;33.40;99.90
8824;DHT22;4448;50.904;4.694;2023-09-08T11:39:46;33.50;99.90
8824;DHT22;4448;50.904;4.694;2023-09-08T11:42:14;33.60;99.90
8824;DHT22;4448;50.904;4.694;2023-09-08T11:44:40;33.60;99.90
8824;DHT22;4448;50.904;4.694;2023-09-08T11:47:07;33.70;99.90
8824;DHT22;4448;50.904;4.694;2023-09-08T11:49:38;33.80;99.90
8824;DHT22;4448;50.904;4.694;2023-09-08T11:52:04;33.80;99.90
8824;DHT22;4448;50.904;4.694;2023-09-08T11:54:31;33.80;99.90
8824;DHT22;4448;50.904;4.694;2023-09-08T11:57:02;33.90;99.90
8824;DHT22;4448;50.904;4.694;2023-09-08T11:59:32;33.90;99.90
8824;DHT22;4448;50.904;4.694;2023-09-08T12:01:58;34.00;99.90
8824;DHT22;4448;50.904;4.694;2023-09-08T12:04:24;34.00;99.90
8824;DHT22;4448;50.904;4.694;2023-09-08T12:06:52;34.10;99.90
8824;DHT22;4448;50.904;4.694;2023-09-08T12:09:20;34.20;99.90
8824;DHT22;4448;50.904;4.694;2023-09-08T12:11:46;34.30;99.90
8824;DHT22;4448;50.904;4.694;2023-09-08T12:14:13;34.30;99.90
8824;DHT22;4448;50.904;4.694;2023-09-08T12:16:40;34.40;99.90
8824;DHT22;4448;50.904;4.694;2023-09-08T12:19:07;34.40;99.90
8824;DHT22;4448;50.904;4.694;2023-09-08T12:21:56;34.50;99.90
8824;DHT22;4448;50.904;4.694;2023-09-08T12:27:21;34.80;99.90
8824;DHT22;4448;50.904;4.694;2023-09-08T12:29:58;34.80;99.90
8824;DHT22;4448;50.904;4.694;2023-09-08T12:32:26;34.90;99.90
8824;DHT22;4448;50.904;4.694;2023-09-08T12:34:54;34.90;99.90
8824;DHT22;4448;50.904;4.694;2023-09-08T12:37:21;35.00;99.90
8824;DHT22;4448;50.904;4.694;2023-09-08T12:39:47;35.00;99.90
8824;DHT22;4448;50.904;4.694;2023-09-08T12:42:13;35.00;99.90
8824;DHT22;4448;50.904;4.694;2023-09-08T12:44:38;35.00;99.90
8824;DHT22;4448;50.904;4.694;2023-09-08T12:47:04;35.00;99.90
8824;DHT22;4448;50.904;4.694;2023-09-08T12:49:30;34.90;99.90
8824;DHT22;4448;50.904;4.694;2023-09-08T12:51:55;34.90;99.90
8824;DHT22;4448;50.904;4.694;2023-09-08T12:54:21;34.90;99.90
8824;DHT22;4448;50.904;4.694;2023-09-08T12:56:47;34.90;99.90
8824;DHT22;4448;50.904;4.694;2023-09-08T12:59:13;34.90;99.90
8824;DHT22;4448;50.904;4.694;2023-09-08T13:01:38;34.90;99.90
8824;DHT22;4448;50.904;4.694;2023-09-08T13:04:04;34.80;99.90
8824;DHT22;4448;50.904;4.694;2023-09-08T13:06:30;34.80;99.90
8824;DHT22;4448;50.904;4.694;2023-09-08T13:08:58;34.70;99.90
8824;DHT22;4448;50.904;4.694;2023-09-08T13:11:24;34.60;99.90
8824;DHT22;4448;50.904;4.694;2023-09-08T13:13:50;34.60;99.90
8824;DHT22;4448;50.904;4.694;2023-09-08T13:16:15;34.50;99.90
8824;DHT22;4448;50.904;4.694;2023-09-08T13:18:41;34.40;99.90
8824;DHT22;4448;50.904;4.694;2023-09-08T13:21:07;34.40;99.90
8824;DHT22;4448;50.904;4.694;2023-09-08T13:23:32;34.30;99.90
8824;DHT22;4448;50.904;4.694;2023-09-08T13:25:58;34.30;99.90
8824;DHT22;4448;50.904;4.694;2023-09-08T13:28:23;34.30;99.90
8824;DHT22;4448;50.904;4.694;2023-09-08T13:30:49;34.30;99.90
8824;DHT22;4448;50.904;4.694;2023-09-08T13:33:15;34.30;99.90
8824;DHT22;4448;50.904;4.694;2023-09-08T13:35:40;34.30;99.90
8824;DHT22;4448;50.904;4.694;2023-09-08T13:38:06;34.20;99.90
8824;DHT22;4448;50.904;4.694;2023-09-08T13:40:32;34.20;99.90
8824;DHT22;4448;50.904;4.694;2023-09-08T13:42:57;34.20;99.90
8824;DHT22;4448;50.904;4.694;2023-09-08T13:45:23;34.10;99.90
8824;DHT22;4448;50.904;4.694;2023-09-08T13:47:49;33.90;99.90
8824;DHT22;4448;50.904;4.694;2023-09-08T13:50:14;33.90;99.90
8824;DHT22;4448;50.904;4.694;2023-09-08T13:52:40;33.80;99.90
8824;DHT22;4448;50.904;4.694;2023-09-08T13:55:06;33.70;99.90
8824;DHT22;4448;50.904;4.694;2023-09-08T13:57:32;33.60;99.90
8824;DHT22;4448;50.904;4.694;2023-09-08T13:59:58;33.50;99.90
8824;DHT22;4448;50.904;4.694;2023-09-08T14:02:24;33.40;99.90
8824;DHT22;4448;50.904;4.694;2023-09-08T14:04:50;33.30;99.90
8824;DHT22;4448;50.904;4.694;2023-09-08T14:07:15;33.30;99.90
8824;DHT22;4448;50.904;4.694;2023-09-08T14:09:41;33.30;99.90
8824;DHT22;4448;50.904;4.694;2023-09-08T14:12:07;33.20;99.90
8824;DHT22;4448;50.904;4.694;2023-09-08T14:14:33;33.20;99.90
8824;DHT22;4448;50.904;4.694;2023-09-08T14:16:58;33.10;99.90
8824;DHT22;4448;50.904;4.694;2023-09-08T14:19:24;33.10;99.90
8824;DHT22;4448;50.904;4.694;2023-09-08T14:21:49;33.00;99.90
8824;DHT22;4448;50.904;4.694;2023-09-08T14:24:15;32.90;99.90
8824;DHT22;4448;50.904;4.694;2023-09-08T14:26:41;32.80;99.90
8824;DHT22;4448;50.904;4.694;2023-09-08T14:29:06;32.70;99.90
8824;DHT22;4448;50.904;4.694;2023-09-08T14:31:32;32.70;99.90
8824;DHT22;4448;50.904;4.694;2023-09-08T14:33:59;32.60;99.90
8824;DHT22;4448;50.904;4.694;2023-09-08T14:36:25;32.50;99.90
8824;DHT22;4448;50.904;4.694;2023-09-08T14:38:51;32.50;99.90
8824;DHT22;4448;50.904;4.694;2023-09-08T14:41:16;32.30;99.90
8824;DHT22;4448;50.904;4.694;2023-09-08T14:43:42;32.30;99.90
8824;DHT22;4448;50.904;4.694;2023-09-08T14:46:08;32.20;99.90
8824;DHT22;4448;50.904;4.694;2023-09-08T14:48:33;32.20;99.90
8824;DHT22;4448;50.904;4.694;2023-09-08T14:51:01;32.00;99.90
8824;DHT22;4448;50.904;4.694;2023-09-08T14:53:28;32.00;99.90
8824;DHT22;4448;50.904;4.694;2023-09-08T14:55:54;31.90;99.90
8824;DHT22;4448;50.904;4.694;2023-09-08T14:58:23;31.90;99.90
8824;DHT22;4448;50.904;4.694;2023-09-08T15:00:49;31.80;99.90
8824;DHT22;4448;50.904;4.694;2023-09-08T15:03:14;31.70;99.90
8824;DHT22;4448;50.904;4.694;2023-09-08T15:05:40;31.70;99.90
8824;DHT22;4448;50.904;4.694;2023-09-08T15:08:06;31.70;99.90
8824;DHT22;4448;50.904;4.694;2023-09-08T15:10:32;31.60;99.90
8824;DHT22;4448;50.904;4.694;2023-09-08T15:12:58;31.50;99.90
8824;DHT22;4448;50.904;4.694;2023-09-08T15:15:23;31.50;99.90
8824;DHT22;4448;50.904;4.694;2023-09-08T15:17:53;31.50;99.90
8824;DHT22;4448;50.904;4.694;2023-09-08T15:20:20;31.40;99.90
8824;DHT22;4448;50.904;4.694;2023-09-08T15:22:46;31.40;99.90
8824;DHT22;4448;50.904;4.694;2023-09-08T15:25:12;31.30;99.90
8824;DHT22;4448;50.904;4.694;2023-09-08T15:27:38;31.20;99.90
8824;DHT22;4448;50.904;4.694;2023-09-08T15:30:05;31.20;99.90
8824;DHT22;4448;50.904;4.694;2023-09-08T15:32:31;31.10;99.90
8824;DHT22;4448;50.904;4.694;2023-09-08T15:34:56;31.00;99.90
8824;DHT22;4448;50.904;4.694;2023-09-08T15:37:22;31.00;99.90
8824;DHT22;4448;50.904;4.694;2023-09-08T15:39:48;31.00;99.90
8824;DHT22;4448;50.904;4.694;2023-09-08T15:42:13;30.90;99.90
8824;DHT22;4448;50.904;4.694;2023-09-08T15:44:39;30.80;99.90
8824;DHT22;4448;50.904;4.694;2023-09-08T15:47:05;30.80;99.90
8824;DHT22;4448;50.904;4.694;2023-09-08T15:49:30;30.70;99.90
8824;DHT22;4448;50.904;4.694;2023-09-08T15:51:56;30.70;99.90
8824;DHT22;4448;50.904;4.694;2023-09-08T15:54:22;30.60;99.90
8824;DHT22;4448;50.904;4.694;2023-09-08T15:56:47;30.60;99.90
8824;DHT22;4448;50.904;4.694;2023-09-08T15:59:16;30.50;99.90
8824;DHT22;4448;50.904;4.694;2023-09-08T16:01:42;30.40;99.90
8824;DHT22;4448;50.904;4.694;2023-09-08T16:04:08;30.40;99.90
8824;DHT22;4448;50.904;4.694;2023-09-08T16:06:38;30.40;99.90
8824;DHT22;4448;50.904;4.694;2023-09-08T16:09:05;30.30;99.90
8824;DHT22;4448;50.904;4.694;2023-09-08T16:11:31;30.30;99.90
8824;DHT22;4448;50.904;4.694;2023-09-08T16:13:58;30.20;99.90